Time;durP1;ratioP1;P1;durP2;ratioP2;P2;SDS_P1;SDS_P2;PMS_P1;PMS_P2;Temp;Humidity;BMP_temperature;BMP_pressure;BME280_temperature;BME280_humidity;BME280_pressure;Samples;Min_cycle;Max_cycle;Signal;HPM_P1;HPM_P2
2021/05/21 00:02:15;;;;;;;5.30;1.50;;;17.60;57.80;;;;;;5054835;28;20408;-75
2021/05/21 00:04:41;;;;;;;3.22;1.67;;;17.60;57.80;;;;;;5049070;28;20483;-75
2021/05/21 00:07:06;;;;;;;1.85;1.10;;;17.60;57.80;;;;;;5049338;28;20493;-75
2021/05/21 00:09:32;;;;;;;3.00;1.40;;;17.60;57.90;;;;;;5049163;28;20033;-75
2021/05/21 00:11:58;;;;;;;3.63;1.48;;;17.60;57.90;;;;;;5034170;28;20025;-75
2021/05/21 00:14:24;;;;;;;2.83;1.35;;;17.60;58.00;;;;;;5059028;28;20091;-74
2021/05/21 00:16:50;;;;;;;2.28;1.30;;;17.60;57.90;;;;;;5046782;28;20036;-74
2021/05/21 00:19:15;;;;;;;4.28;1.50;;;17.60;57.90;;;;;;5047779;28;20033;-75
2021/05/21 00:21:41;;;;;;;3.08;1.50;;;17.60;58.20;;;;;;5053058;28;20469;-74
2021/05/21 00:24:07;;;;;;;5.97;1.60;;;17.60;58.00;;;;;;5061161;28;20479;-74
2021/05/21 00:26:33;;;;;;;2.58;1.30;;;17.60;58.10;;;;;;5051638;28;20040;-75
2021/05/21 00:28:59;;;;;;;4.10;1.50;;;17.60;58.20;;;;;;5053185;28;20036;-75
2021/05/21 00:31:25;;;;;;;2.85;1.48;;;17.60;58.20;;;;;;5062200;28;20025;-75
2021/05/21 00:33:50;;;;;;;6.65;2.10;;;17.60;58.10;;;;;;5050255;28;21682;-75
2021/05/21 00:36:16;;;;;;;3.50;1.50;;;17.60;58.10;;;;;;5060556;28;20068;-75
2021/05/21 00:38:42;;;;;;;5.30;1.40;;;17.60;58.10;;;;;;5050257;28;20207;-73
2021/05/21 00:41:08;;;;;;;4.40;1.50;;;17.60;58.20;;;;;;5048549;28;20115;-72
2021/05/21 00:43:34;;;;;;;3.08;1.42;;;17.60;58.30;;;;;;5060649;28;20513;-75
2021/05/21 00:46:01;;;;;;;4.38;1.88;;;17.60;58.30;;;;;;5057818;28;20093;-75
2021/05/21 00:48:27;;;;;;;2.83;1.33;;;17.60;58.40;;;;;;5060989;28;20423;-74
2021/05/21 00:50:53;;;;;;;3.75;1.20;;;17.60;58.40;;;;;;5071384;28;20032;-74
2021/05/21 00:53:20;;;;;;;4.53;1.55;;;17.60;58.40;;;;;;5052076;28;20454;-74
2021/05/21 00:55:46;;;;;;;4.32;1.30;;;17.60;58.40;;;;;;5052145;28;20044;-74
2021/05/21 00:58:13;;;;;;;5.57;1.77;;;17.60;58.30;;;;;;5079973;28;20036;-74
2021/05/21 01:00:39;;;;;;;3.65;1.60;;;17.60;58.30;;;;;;5051147;28;20431;-75
2021/05/21 01:03:04;;;;;;;3.42;1.33;;;17.60;58.30;;;;;;5057541;28;20048;-74
2021/05/21 01:05:30;;;;;;;2.40;1.27;;;17.60;58.30;;;;;;5058042;28;20426;-75
2021/05/21 01:07:56;;;;;;;2.80;1.33;;;17.60;58.30;;;;;;5057629;28;20033;-76
2021/05/21 01:10:21;;;;;;;4.35;1.45;;;17.70;58.30;;;;;;5052844;28;20063;-75
2021/05/21 01:12:48;;;;;;;2.20;1.10;;;17.60;58.30;;;;;;5054955;28;20076;-74
2021/05/21 01:15:15;;;;;;;3.53;1.67;;;17.60;58.40;;;;;;5053444;28;20086;-75
2021/05/21 01:17:40;;;;;;;4.30;1.30;;;17.60;58.40;;;;;;5061085;28;20465;-74
2021/05/21 01:20:11;;;;;;;3.17;1.40;;;17.70;58.50;;;;;;5054267;28;20029;-75
2021/05/21 01:22:37;;;;;;;4.18;1.40;;;17.60;58.50;;;;;;5055388;28;20060;-75
2021/05/21 01:25:05;;;;;;;5.30;1.38;;;17.60;58.40;;;;;;5059541;28;20513;-74
2021/05/21 01:27:31;;;;;;;2.10;1.30;;;17.60;58.50;;;;;;5068090;28;20032;-75
2021/05/21 01:29:57;;;;;;;2.10;1.30;;;17.60;58.50;;;;;;5056136;28;20040;-76
2021/05/21 01:32:22;;;;;;;6.07;1.50;;;17.70;58.50;;;;;;5059706;28;20428;-75
2021/05/21 01:34:48;;;;;;;5.82;1.80;;;17.60;58.40;;;;;;5058433;28;20475;-75
2021/05/21 01:37:19;;;;;;;3.28;1.65;;;17.60;58.50;;;;;;5057654;28;20067;-75
2021/05/21 01:39:48;;;;;;;2.70;1.23;;;17.60;58.50;;;;;;5040924;28;20128;-74
2021/05/21 01:42:15;;;;;;;6.00;1.73;;;17.70;58.40;;;;;;5071268;28;20043;-75
2021/05/21 01:44:41;;;;;;;2.85;1.40;;;17.70;58.40;;;;;;5061841;28;20096;-75
2021/05/21 01:47:10;;;;;;;4.95;1.73;;;17.70;58.40;;;;;;5060992;28;20064;-74
2021/05/21 01:49:35;;;;;;;3.70;1.38;;;17.70;58.50;;;;;;5051705;28;20072;-74
2021/05/21 01:52:02;;;;;;;4.55;1.35;;;17.70;58.50;;;;;;5061269;28;20065;-75
2021/05/21 01:54:29;;;;;;;4.72;1.50;;;17.70;58.50;;;;;;5058649;28;20033;-73
2021/05/21 01:57:00;;;;;;;2.38;1.38;;;17.60;59.00;;;;;;5050992;28;20044;-74
2021/05/21 01:59:25;;;;;;;5.20;1.67;;;17.60;59.50;;;;;;5050160;28;20474;-75
2021/05/21 02:01:52;;;;;;;4.60;1.42;;;17.60;59.80;;;;;;5063495;28;20095;-74
2021/05/21 02:04:29;;;;;;;4.60;1.50;;;17.70;59.90;;;;;;5062967;28;20036;-74
2021/05/21 02:06:55;;;;;;;2.90;1.30;;;17.60;60.40;;;;;;5058056;28;20040;-74
2021/05/21 02:09:21;;;;;;;4.70;1.73;;;17.70;59.70;;;;;;5052578;28;20505;-74
2021/05/21 02:11:46;;;;;;;3.05;1.25;;;17.70;59.60;;;;;;5060421;28;20029;-74
2021/05/21 02:14:12;;;;;;;3.13;1.50;;;17.70;59.60;;;;;;5049940;28;20045;-74
2021/05/21 02:16:38;;;;;;;4.93;1.55;;;17.70;59.60;;;;;;5059803;28;20103;-74
2021/05/21 02:19:04;;;;;;;3.15;1.73;;;17.70;59.70;;;;;;5050585;28;20033;-75
2021/05/21 02:21:32;;;;;;;5.55;1.52;;;17.70;60.70;;;;;;5061538;28;20044;-75
2021/05/21 02:24:03;;;;;;;4.55;1.83;;;17.70;61.50;;;;;;5055338;28;20036;-76
2021/05/21 02:26:30;;;;;;;7.28;2.17;;;17.50;62.70;;;;;;5060591;28;20032;-75
2021/05/21 02:28:56;;;;;;;4.85;1.95;;;17.50;63.70;;;;;;5049910;28;20091;-75
2021/05/21 02:31:22;;;;;;;5.68;2.10;;;17.40;64.30;;;;;;5058984;28;20064;-75
2021/05/21 02:33:48;;;;;;;9.27;2.40;;;17.30;64.90;;;;;;5056393;28;20028;-75
2021/05/21 02:36:14;;;;;;;10.65;2.72;;;17.20;66.20;;;;;;5065013;28;20176;-75
2021/05/21 02:38:39;;;;;;;9.32;3.15;;;17.20;65.60;;;;;;5049048;28;20040;-75
2021/05/21 02:41:05;;;;;;;9.60;3.25;;;17.10;65.50;;;;;;5058290;28;20032;-75
2021/05/21 02:43:31;;;;;;;11.10;2.70;;;17.00;65.40;;;;;;5054669;28;20462;-75
2021/05/21 02:45:57;;;;;;;15.48;3.28;;;17.00;65.80;;;;;;5061121;28;20035;-75
2021/05/21 02:48:22;;;;;;;13.73;3.50;;;17.00;66.10;;;;;;5062301;28;20367;-75
2021/05/21 02:50:48;;;;;;;12.25;2.92;;;16.90;66.50;;;;;;5054370;28;20467;-74
2021/05/21 02:53:13;;;;;;;14.77;3.95;;;16.90;66.60;;;;;;5052795;28;20035;-74
2021/05/21 02:55:39;;;;;;;17.65;3.47;;;16.80;67.00;;;;;;5058759;28;20033;-74
2021/05/21 02:58:05;;;;;;;13.48;4.45;;;16.70;67.40;;;;;;5082417;28;20442;-74
2021/05/21 03:00:30;;;;;;;12.80;3.88;;;16.50;67.60;;;;;;5065003;28;20371;-74
2021/05/21 03:02:56;;;;;;;10.90;3.40;;;16.50;68.30;;;;;;5062006;28;20480;-74
2021/05/21 03:05:22;;;;;;;16.52;4.35;;;16.40;68.40;;;;;;5050823;28;20048;-74
2021/05/21 03:08:06;;;;;;;13.93;2.90;;;16.30;68.80;;;;;;5067857;28;20040;-74
2021/05/21 03:10:32;;;;;;;15.73;4.05;;;16.30;69.20;;;;;;5053137;28;20124;-74
2021/05/21 03:12:57;;;;;;;15.40;3.67;;;16.30;69.00;;;;;;5059954;28;20155;-74
2021/05/21 03:15:25;;;;;;;13.10;3.25;;;16.30;69.10;;;;;;5064496;28;20056;-74
2021/05/21 03:17:51;;;;;;;12.15;3.28;;;16.20;69.20;;;;;;5060268;28;20094;-74
2021/05/21 03:20:17;;;;;;;14.25;2.97;;;16.10;69.60;;;;;;5052935;28;20479;-74
2021/05/21 03:22:43;;;;;;;9.77;2.80;;;16.00;69.70;;;;;;5060605;28;20024;-74
2021/05/21 03:25:10;;;;;;;13.52;3.70;;;16.00;69.90;;;;;;5064382;28;20347;-74
2021/05/21 03:27:36;;;;;;;7.22;2.65;;;16.00;70.20;;;;;;5050103;28;20059;-74
2021/05/21 03:30:04;;;;;;;15.98;4.45;;;16.00;70.10;;;;;;5067259;28;20561;-74
2021/05/21 03:32:30;;;;;;;9.43;2.85;;;16.00;70.20;;;;;;5054812;28;20032;-74
2021/05/21 03:34:55;;;;;;;14.98;2.72;;;15.90;70.20;;;;;;5056303;28;20470;-74
2021/05/21 03:37:21;;;;;;;12.05;3.15;;;15.90;70.40;;;;;;5061822;28;20487;-74
2021/05/21 03:39:46;;;;;;;16.90;3.72;;;15.90;70.40;;;;;;5031897;28;20112;-74
2021/05/21 03:42:13;;;;;;;14.48;4.00;;;15.80;70.50;;;;;;5056625;28;20032;-73
2021/05/21 03:44:39;;;;;;;10.93;3.17;;;15.80;70.90;;;;;;5050048;28;20132;-74
2021/05/21 03:47:05;;;;;;;12.02;3.40;;;15.70;71.00;;;;;;5053750;28;20078;-73
2021/05/21 03:49:31;;;;;;;17.52;3.50;;;15.70;71.30;;;;;;5048503;28;20135;-74
2021/05/21 03:51:58;;;;;;;16.45;3.40;;;15.60;71.20;;;;;;5055120;28;20094;-73
2021/05/21 03:54:24;;;;;;;18.75;4.00;;;15.70;71.30;;;;;;5048384;28;20032;-74
2021/05/21 03:56:51;;;;;;;13.35;3.72;;;15.70;71.30;;;;;;5053957;28;20037;-74
2021/05/21 03:59:17;;;;;;;14.30;2.78;;;15.70;71.30;;;;;;5048377;28;20108;-72
2021/05/21 04:01:45;;;;;;;15.82;3.85;;;15.70;71.20;;;;;;5056150;28;20776;-71
2021/05/21 04:04:10;;;;;;;14.07;3.40;;;15.70;71.10;;;;;;5049259;28;20033;-71
2021/05/21 04:06:36;;;;;;;8.90;2.88;;;15.70;71.00;;;;;;5054208;28;20043;-72
2021/05/21 04:09:06;;;;;;;12.23;3.03;;;15.70;70.90;;;;;;5060176;28;20041;-72
2021/05/21 04:11:36;;;;;;;11.20;2.67;;;15.60;70.90;;;;;;5052994;28;20032;-72
2021/05/21 04:14:04;;;;;;;11.65;2.95;;;15.60;70.80;;;;;;5058290;28;20040;-71
2021/05/21 04:16:29;;;;;;;12.40;2.90;;;15.60;70.80;;;;;;5058537;28;20029;-72
2021/05/21 04:18:55;;;;;;;13.50;3.25;;;15.70;70.80;;;;;;5049778;28;20031;-71
2021/05/21 04:21:21;;;;;;;12.98;3.33;;;15.70;70.60;;;;;;5054575;28;20107;-72
2021/05/21 04:23:47;;;;;;;10.10;3.42;;;15.70;70.50;;;;;;5071389;28;20478;-72
2021/05/21 04:26:16;;;;;;;16.02;3.90;;;15.70;70.40;;;;;;5070218;28;20123;-74
2021/05/21 04:28:47;;;;;;;11.85;2.85;;;15.70;70.40;;;;;;5053085;28;20051;-74
2021/05/21 04:31:12;;;;;;;17.23;3.30;;;15.70;70.10;;;;;;5060994;28;20028;-74
2021/05/21 04:33:38;;;;;;;11.48;3.53;;;15.70;70.00;;;;;;5087435;28;20059;-74
2021/05/21 04:36:05;;;;;;;12.10;3.58;;;15.80;70.20;;;;;;5063597;28;20453;-72
2021/05/21 04:38:31;;;;;;;13.75;3.42;;;15.90;70.00;;;;;;5052131;28;20037;-72
2021/05/21 04:40:56;;;;;;;11.13;3.65;;;15.80;70.00;;;;;;5053136;28;20025;-74
2021/05/21 04:43:25;;;;;;;12.82;3.40;;;15.80;70.10;;;;;;5069516;28;20474;-72
2021/05/21 04:45:50;;;;;;;15.48;3.72;;;15.80;70.10;;;;;;5064049;28;20116;-73
2021/05/21 04:48:16;;;;;;;12.15;3.40;;;15.90;70.00;;;;;;5063473;28;20116;-73
2021/05/21 04:50:42;;;;;;;10.60;3.55;;;15.90;70.10;;;;;;5063747;28;20043;-75
2021/05/21 04:53:08;;;;;;;12.85;3.55;;;15.90;70.00;;;;;;5063629;28;20041;-72
2021/05/21 04:55:33;;;;;;;15.15;3.75;;;16.00;70.00;;;;;;5059364;28;20047;-72
2021/05/21 04:57:59;;;;;;;15.52;3.35;;;16.00;70.10;;;;;;5067627;28;20033;-73
2021/05/21 05:00:25;;;;;;;14.88;3.20;;;16.00;70.40;;;;;;5067218;28;20472;-74
2021/05/21 05:02:50;;;;;;;13.82;3.65;;;16.00;70.30;;;;;;5063174;28;20554;-74
2021/05/21 05:05:16;;;;;;;13.18;3.13;;;16.10;70.50;;;;;;5059694;28;20037;-74
2021/05/21 05:07:41;;;;;;;15.75;3.92;;;16.10;70.30;;;;;;5052907;28;20049;-73
2021/05/21 05:10:07;;;;;;;13.68;3.20;;;16.10;70.40;;;;;;5062927;28;20041;-75
2021/05/21 05:12:33;;;;;;;11.98;3.20;;;16.20;69.10;;;;;;5051394;28;20053;-74
2021/05/21 05:14:59;;;;;;;10.05;2.95;;;16.10;69.60;;;;;;5059911;28;20064;-73
2021/05/21 05:17:24;;;;;;;9.73;2.50;;;16.10;69.60;;;;;;5062411;28;20696;-73
2021/05/21 05:19:50;;;;;;;9.57;3.17;;;16.10;69.50;;;;;;5061506;28;20043;-74
2021/05/21 05:22:16;;;;;;;9.80;2.72;;;16.00;69.20;;;;;;5050287;28;20036;-74
2021/05/21 05:24:41;;;;;;;17.02;2.95;;;16.00;69.30;;;;;;5057296;28;20033;-74
2021/05/21 05:27:07;;;;;;;14.88;3.08;;;16.10;69.40;;;;;;5064327;28;20127;-75
2021/05/21 05:29:34;;;;;;;12.18;3.10;;;16.10;69.30;;;;;;5066636;28;20029;-74
2021/05/21 05:32:01;;;;;;;10.55;3.05;;;16.20;69.40;;;;;;5076083;28;20171;-74
2021/05/21 05:34:27;;;;;;;11.30;3.50;;;16.20;69.30;;;;;;5051409;28;20055;-74
2021/05/21 05:36:54;;;;;;;11.50;2.95;;;16.20;69.40;;;;;;5063408;28;20044;-74
2021/05/21 05:39:20;;;;;;;9.68;3.08;;;16.30;69.40;;;;;;5068672;28;20028;-74
2021/05/21 05:41:50;;;;;;;10.45;3.42;;;16.30;69.10;;;;;;5064515;28;20115;-75
2021/05/21 05:44:20;;;;;;;10.85;3.67;;;16.30;68.80;;;;;;5066453;28;20078;-74
2021/05/21 05:46:45;;;;;;;12.73;4.07;;;16.20;68.50;;;;;;5054536;28;20059;-74
2021/05/21 05:49:11;;;;;;;10.65;2.70;;;16.30;67.60;;;;;;5049132;28;20451;-74
2021/05/21 05:51:37;;;;;;;9.98;2.97;;;16.30;67.10;;;;;;5051214;28;20459;-74
2021/05/21 05:54:03;;;;;;;12.93;2.78;;;16.40;66.90;;;;;;5091920;28;20036;-74
2021/05/21 05:56:29;;;;;;;11.57;3.88;;;16.40;66.30;;;;;;5066674;28;20066;-74
2021/05/21 05:58:55;;;;;;;11.25;3.22;;;16.50;66.20;;;;;;5050596;28;20033;-74
2021/05/21 06:01:21;;;;;;;16.65;4.47;;;16.70;66.00;;;;;;5059432;28;20491;-72
2021/05/21 06:03:46;;;;;;;16.00;3.17;;;16.80;64.70;;;;;;5060222;28;20037;-74
2021/05/21 06:06:12;;;;;;;14.55;3.00;;;16.90;64.40;;;;;;5059885;28;20048;-74
2021/05/21 06:08:38;;;;;;;13.07;2.95;;;17.00;64.10;;;;;;5061648;28;20045;-74
2021/05/21 06:11:03;;;;;;;12.18;3.08;;;17.10;63.20;;;;;;5071409;28;20054;-75
2021/05/21 06:13:29;;;;;;;14.40;3.47;;;17.20;62.90;;;;;;5064517;28;20925;-74
2021/05/21 06:15:55;;;;;;;15.73;3.30;;;17.40;62.30;;;;;;5053239;28;20475;-75
2021/05/21 06:18:21;;;;;;;14.07;3.58;;;17.50;60.90;;;;;;5052085;28;20065;-74
2021/05/21 06:20:47;;;;;;;13.02;4.15;;;17.60;59.80;;;;;;5052639;28;20071;-74
2021/05/21 06:23:12;;;;;;;11.13;2.92;;;17.70;58.80;;;;;;5064264;28;20064;-75
2021/05/21 06:26:11;;;;;;;9.07;2.65;;;17.80;57.60;;;;;;5061685;28;20081;-75
2021/05/21 06:28:25;;;;;;;9.38;2.53;;;17.80;56.70;;;;;;5064909;28;20437;-75
2021/05/21 06:30:51;;;;;;;10.98;2.88;;;18.00;57.40;;;;;;5051177;28;20127;-76
2021/05/21 06:33:17;;;;;;;10.25;3.03;;;18.00;56.60;;;;;;5056912;28;20442;-75
2021/05/21 06:35:43;;;;;;;13.48;3.25;;;18.10;55.70;;;;;;5046275;28;20029;-75
2021/05/21 06:38:09;;;;;;;16.85;3.78;;;18.30;55.30;;;;;;5061437;28;20036;-76
2021/05/21 06:40:35;;;;;;;9.80;3.17;;;18.40;54.90;;;;;;5063804;28;20052;-75
2021/05/21 06:43:09;;;;;;;12.63;3.15;;;18.50;54.50;;;;;;5057680;28;20064;-75
2021/05/21 06:45:36;;;;;;;9.32;2.60;;;18.60;54.50;;;;;;5055708;28;20025;-76
2021/05/21 06:48:03;;;;;;;13.40;3.53;;;18.80;54.20;;;;;;5056589;28;20163;-73
2021/05/21 06:50:29;;;;;;;9.98;2.63;;;18.90;52.00;;;;;;5059625;28;20437;-75
2021/05/21 06:52:54;;;;;;;9.15;2.78;;;19.00;52.20;;;;;;5057357;28;20029;-75
2021/05/21 06:55:20;;;;;;;9.38;3.05;;;19.10;50.60;;;;;;5062761;28;20478;-75
2021/05/21 06:57:45;;;;;;;9.50;3.45;;;19.20;50.80;;;;;;5051426;28;20043;-74
2021/05/21 07:00:11;;;;;;;17.45;3.92;;;19.30;50.40;;;;;;5048791;28;20032;-76
2021/05/21 07:02:37;;;;;;;12.32;2.95;;;19.50;50.50;;;;;;5049730;28;20483;-76
2021/05/21 07:05:03;;;;;;;11.07;2.75;;;19.60;49.60;;;;;;5064773;28;20032;-76
2021/05/21 07:07:31;;;;;;;10.70;3.15;;;19.70;49.80;;;;;;5064134;28;20032;-77
2021/05/21 07:09:57;;;;;;;10.60;2.67;;;19.80;49.30;;;;;;5051545;28;20032;-76
2021/05/21 07:12:22;;;;;;;10.70;2.70;;;19.70;49.20;;;;;;5057463;28;20021;-76
2021/05/21 07:14:48;;;;;;;9.73;2.95;;;19.70;49.20;;;;;;5051786;28;20101;-75
2021/05/21 07:17:14;;;;;;;9.77;2.90;;;19.70;49.50;;;;;;5056529;28;20036;-75
2021/05/21 07:19:39;;;;;;;11.93;3.10;;;19.80;49.00;;;;;;5049242;28;20024;-77
2021/05/21 07:22:08;;;;;;;7.72;2.80;;;20.00;49.50;;;;;;5060266;28;20074;-76
2021/05/21 07:24:35;;;;;;;8.70;2.80;;;20.30;49.50;;;;;;5072948;28;20439;-76
2021/05/21 07:27:00;;;;;;;10.85;3.38;;;20.60;48.80;;;;;;5053526;28;20037;-78
2021/05/21 07:29:26;;;;;;;8.48;2.78;;;20.70;47.60;;;;;;5067736;28;20116;-77
2021/05/21 07:31:52;;;;;;;9.40;2.22;;;20.60;48.00;;;;;;5054125;28;20037;-75
2021/05/21 07:34:18;;;;;;;9.80;2.67;;;20.60;47.90;;;;;;5056633;28;20032;-75
2021/05/21 07:36:43;;;;;;;10.25;2.60;;;20.50;47.80;;;;;;5050843;28;20094;-74
2021/05/21 07:39:09;;;;;;;13.30;3.22;;;20.40;47.20;;;;;;5065455;28;20072;-75
2021/05/21 07:41:35;;;;;;;13.88;3.83;;;20.40;47.60;;;;;;5062650;28;20054;-77
2021/05/21 07:44:01;;;;;;;13.40;2.80;;;20.40;47.90;;;;;;5040443;28;20041;-75
2021/05/21 07:46:26;;;;;;;12.85;3.25;;;20.40;47.50;;;;;;5062928;28;20374;-76
2021/05/21 07:48:53;;;;;;;10.13;3.80;;;20.30;47.70;;;;;;5061346;28;20106;-76
2021/05/21 07:51:20;;;;;;;8.55;2.90;;;20.20;48.00;;;;;;5049297;28;20037;-74
2021/05/21 07:53:46;;;;;;;8.30;2.50;;;20.10;48.00;;;;;;5062660;28;20041;-75
2021/05/21 07:56:11;;;;;;;14.38;3.45;;;20.20;48.00;;;;;;5058557;28;20090;-74
2021/05/21 07:58:37;;;;;;;11.60;2.97;;;20.10;48.00;;;;;;5063340;28;20379;-75
2021/05/21 08:01:03;;;;;;;9.13;2.67;;;20.10;48.70;;;;;;5062963;28;20308;-76
2021/05/21 08:03:29;;;;;;;11.88;2.72;;;20.00;48.90;;;;;;5066678;28;20027;-76
2021/05/21 08:05:58;;;;;;;7.55;2.90;;;19.80;50.10;;;;;;5067522;28;20032;-74
2021/05/21 08:08:24;;;;;;;8.23;2.78;;;19.50;53.10;;;;;;5058962;28;20063;-74
2021/05/21 08:10:52;;;;;;;6.45;2.20;;;19.10;55.20;;;;;;5053542;28;20352;-76
2021/05/21 08:13:18;;;;;;;8.57;2.15;;;18.70;56.90;;;;;;5064115;28;20156;-76
2021/05/21 08:15:44;;;;;;;6.97;1.95;;;18.20;57.30;;;;;;5054508;28;20592;-75
2021/05/21 08:18:10;;;;;;;6.30;1.80;;;18.00;58.30;;;;;;5057812;28;20064;-75
2021/05/21 08:20:37;;;;;;;5.43;1.48;;;17.70;57.90;;;;;;5050832;28;20040;-75
2021/05/21 08:23:03;;;;;;;6.43;1.88;;;17.70;58.50;;;;;;5054265;28;20056;-76
2021/05/21 08:25:29;;;;;;;6.28;2.33;;;17.70;57.80;;;;;;5067536;28;20443;-75
2021/05/21 08:27:54;;;;;;;4.10;1.52;;;17.90;57.20;;;;;;5064220;28;20386;-76
2021/05/21 08:30:21;;;;;;;8.05;1.80;;;18.20;56.70;;;;;;5067033;28;20137;-75
2021/05/21 08:32:49;;;;;;;5.28;1.98;;;18.60;56.20;;;;;;5067708;28;20095;-76
2021/05/21 08:35:19;;;;;;;7.18;1.83;;;19.00;56.90;;;;;;5061363;28;20033;-76
2021/05/21 08:37:45;;;;;;;6.78;1.92;;;19.40;56.70;;;;;;5059047;28;20108;-74
2021/05/21 08:40:13;;;;;;;5.88;2.05;;;20.00;55.90;;;;;;5063237;28;20073;-75
2021/05/21 08:42:40;;;;;;;5.47;2.13;;;20.40;55.70;;;;;;5064182;28;20016;-75
2021/05/21 08:45:13;;;;;;;9.75;2.72;;;20.90;55.10;;;;;;5060668;28;20032;-73
2021/05/21 08:47:39;;;;;;;;;;;21.30;54.60;;;;;;5064857;28;20101;-75
2021/05/21 08:50:10;;;;;;;10.60;3.85;;;21.70;52.50;;;;;;5050314;28;19920;-73
2021/05/21 08:52:36;;;;;;;10.25;3.33;;;22.00;52.20;;;;;;5061647;28;20040;-74
2021/05/21 08:55:06;;;;;;;10.13;2.97;;;22.20;50.20;;;;;;5052308;28;20123;-75
2021/05/21 08:57:32;;;;;;;7.85;2.63;;;22.30;50.20;;;;;;5062061;28;20033;-76
2021/05/21 08:59:58;;;;;;;11.48;3.55;;;22.60;50.60;;;;;;5039662;28;20439;-76
2021/05/21 09:02:29;;;;;;;9.07;2.95;;;23.10;49.90;;;;;;5049876;28;20024;-75
2021/05/21 09:05:00;;;;;;;8.75;3.60;;;23.40;47.80;;;;;;5054676;28;20029;-75
2021/05/21 09:07:28;;;;;;;7.32;2.33;;;23.70;47.00;;;;;;5068632;28;20470;-75
2021/05/21 09:09:55;;;;;;;9.18;3.25;;;23.60;44.30;;;;;;5069991;28;20025;-74
2021/05/21 09:12:22;;;;;;;9.63;2.35;;;23.40;45.00;;;;;;5083457;28;20039;-74
2021/05/21 09:15:20;;;;;;;8.50;2.40;;;23.10;44.00;;;;;;5062694;28;20075;-76
2021/05/21 09:17:57;;;;;;;7.90;2.50;;;22.80;45.10;;;;;;5059371;28;20037;-77
2021/05/21 09:20:26;;;;;;;8.00;2.30;;;22.90;45.30;;;;;;5061129;28;20025;-76
2021/05/21 09:23:03;;;;;;;9.20;2.42;;;22.90;44.40;;;;;;5055661;28;20029;-77
2021/05/21 09:25:41;;;;;;;8.90;2.65;;;22.40;45.10;;;;;;5057993;28;20036;-75
2021/05/21 09:28:27;;;;;;;7.68;2.17;;;21.70;48.60;;;;;;5056907;28;20059;-76
2021/05/21 09:31:14;;;;;;;6.88;1.67;;;20.90;49.90;;;;;;5051526;28;20403;-75
2021/05/21 09:33:43;;;;;;;11.80;3.03;;;20.00;51.90;;;;;;5064519;28;20052;-75
2021/05/21 09:36:09;;;;;;;7.60;2.45;;;19.70;54.00;;;;;;5059266;28;20025;-75
2021/05/21 09:38:50;;;;;;;10.98;2.90;;;19.60;55.50;;;;;;5056085;28;20098;-74
2021/05/21 09:41:17;;;;;;;7.90;2.63;;;19.30;56.20;;;;;;5056737;28;20471;-76
2021/05/21 09:43:56;;;;;;;12.45;2.58;;;19.10;56.20;;;;;;5060582;28;20020;-77
2021/05/21 09:46:22;;;;;;;6.70;2.83;;;18.90;57.40;;;;;;5050638;28;20044;-77
2021/05/21 09:48:48;;;;;;;10.10;2.67;;;19.30;59.30;;;;;;5065505;28;20040;-76
2021/05/21 09:51:15;;;;;;;8.35;2.58;;;19.70;59.20;;;;;;5066777;28;20091;-77
2021/05/21 09:53:46;;;;;;;12.10;2.40;;;20.20;59.40;;;;;;5063433;28;20020;-77
2021/05/21 09:56:20;;;;;;;11.35;2.55;;;20.90;57.80;;;;;;5057986;28;20052;-76
2021/05/21 09:58:46;;;;;;;9.00;2.70;;;21.50;55.50;;;;;;5052817;28;20476;-77
2021/05/21 10:01:15;;;;;;;9.43;2.92;;;21.90;53.60;;;;;;5069988;28;20446;-77
2021/05/21 10:03:53;;;;;;;10.80;2.75;;;22.10;53.60;;;;;;5061380;28;20116;-77
2021/05/21 10:06:20;;;;;;;11.45;2.95;;;22.00;52.30;;;;;;5066942;28;20153;-77
2021/05/21 10:08:47;;;;;;;11.55;3.08;;;21.70;51.80;;;;;;5055205;28;20025;-75
2021/05/21 10:11:14;;;;;;;11.38;2.92;;;21.50;50.90;;;;;;5063210;28;20491;-74
2021/05/21 10:13:45;;;;;;;15.05;3.28;;;21.30;51.50;;;;;;5039924;28;605817;-76
2021/05/21 10:16:13;;;;;;;12.40;2.63;;;21.10;52.00;;;;;;5055910;28;20508;-76
2021/05/21 10:18:44;;;;;;;10.48;3.00;;;20.90;53.00;;;;;;5068903;28;20063;-75
2021/05/21 10:21:10;;;;;;;11.07;3.17;;;20.70;51.60;;;;;;5069323;28;20053;-77
2021/05/21 10:23:40;;;;;;;10.32;3.08;;;20.60;52.50;;;;;;5066323;28;20397;-78
2021/05/21 10:26:13;;;;;;;12.18;2.90;;;20.80;53.00;;;;;;5061121;28;20103;-77
2021/05/21 10:28:41;;;;;;;;;;;21.20;52.20;;;;;;5057035;28;20044;-78
2021/05/21 10:31:09;;;;;;;11.25;3.13;;;21.70;51.10;;;;;;5068729;28;19914;-77
2021/05/21 10:33:36;;;;;;;9.68;2.67;;;22.00;49.80;;;;;;5060967;28;20139;-78
2021/05/21 10:36:24;;;;;;;9.40;2.58;;;22.00;48.90;;;;;;5060640;28;20029;-78
2021/05/21 10:39:04;;;;;;;9.05;2.75;;;22.00;49.20;;;;;;5059510;28;20562;-78
2021/05/21 10:41:30;;;;;;;8.32;2.88;;;22.00;49.10;;;;;;5058519;28;20020;-76
2021/05/21 10:43:58;;;;;;;8.73;2.88;;;22.10;47.70;;;;;;5061402;28;20086;-78
2021/05/21 10:46:26;;;;;;;10.40;2.72;;;22.30;47.60;;;;;;5045916;28;20450;-78
2021/05/21 10:48:56;;;;;;;13.43;4.65;;;22.50;46.00;;;;;;5066728;28;20146;-78
2021/05/21 10:51:23;;;;;;;9.85;2.97;;;22.40;45.10;;;;;;5056134;28;20120;-77
2021/05/21 10:54:31;;;;;;;8.93;2.38;;;22.10;45.10;;;;;;5047496;28;20029;-78
2021/05/21 10:57:12;;;;;;;7.70;2.67;;;21.80;46.90;;;;;;5047318;28;20872;-78
2021/05/21 10:59:54;;;;;;;6.53;2.08;;;21.90;47.50;;;;;;5052406;28;20040;-77
2021/05/21 11:02:22;;;;;;;9.23;2.90;;;22.10;47.50;;;;;;5050436;28;20143;-77
2021/05/21 11:04:48;;;;;;;9.35;2.67;;;22.10;46.70;;;;;;5061120;28;20086;-77
2021/05/21 11:07:33;;;;;;;15.00;3.65;;;22.00;47.70;;;;;;5053165;28;20467;-78
2021/05/21 11:10:00;;;;;;;10.65;2.95;;;22.10;47.90;;;;;;5051672;28;20056;-78
2021/05/21 11:12:45;;;;;;;8.27;2.45;;;22.10;47.00;;;;;;5065403;28;20029;-78
2021/05/21 11:15:36;;;;;;;11.38;2.13;;;21.90;47.20;;;;;;5065819;28;20074;-78
2021/05/21 11:18:17;;;;;;;7.22;2.40;;;21.70;47.50;;;;;;5064815;28;20063;-78
2021/05/21 11:21:04;;;;;;;9.95;3.08;;;21.50;48.20;;;;;;5065505;28;20066;-78
2021/05/21 11:23:45;;;;;;;10.18;2.83;;;21.40;49.10;;;;;;5049920;28;20029;-77
2021/05/21 11:26:13;;;;;;;14.15;3.05;;;21.50;50.70;;;;;;5049290;28;20513;-78
2021/05/21 11:28:40;;;;;;;7.72;2.05;;;21.70;50.50;;;;;;5059303;28;20029;-77
2021/05/21 11:31:22;;;;;;;10.13;2.47;;;21.90;50.20;;;;;;5067350;28;20479;-77
2021/05/21 11:33:51;;;;;;;8.07;2.25;;;22.20;49.40;;;;;;5059621;28;20055;-76
2021/05/21 11:36:18;;;;;;;7.32;2.65;;;22.50;48.50;;;;;;5050448;28;20020;-77
2021/05/21 11:38:44;;;;;;;9.65;2.97;;;22.70;47.10;;;;;;5052372;28;20035;-77
2021/05/21 11:41:13;;;;;;;9.18;3.10;;;22.60;45.80;;;;;;5056464;28;20024;-76
2021/05/21 11:43:42;;;;;;;13.15;2.83;;;22.40;47.00;;;;;;5041572;28;20021;-75
2021/05/21 11:46:26;;;;;;;9.85;2.53;;;22.00;49.20;;;;;;5061190;28;20024;-75
2021/05/21 11:48:52;;;;;;;20.08;3.38;;;21.50;52.10;;;;;;5049882;28;20087;-76
2021/05/21 11:51:26;;;;;;;10.93;2.85;;;20.90;53.50;;;;;;5035077;28;20374;-75
2021/05/21 11:54:03;;;;;;;10.43;2.65;;;20.30;55.20;;;;;;5065903;28;20091;-75
2021/05/21 11:56:30;;;;;;;7.03;2.10;;;19.90;57.20;;;;;;5044440;28;20035;-75
2021/05/21 11:59:02;;;;;;;7.22;2.33;;;19.70;57.70;;;;;;5065921;28;20027;-74
2021/05/21 12:01:30;;;;;;;8.68;2.50;;;19.50;58.20;;;;;;5070797;28;20020;-73
2021/05/21 12:03:57;;;;;;;12.25;2.83;;;19.50;58.80;;;;;;5053006;28;20025;-73
2021/05/21 12:06:23;;;;;;;10.90;2.33;;;19.60;60.50;;;;;;5038395;28;20439;-75
2021/05/21 12:08:49;;;;;;;8.80;3.03;;;19.80;60.50;;;;;;5054376;28;20060;-75
2021/05/21 12:11:18;;;;;;;7.63;2.00;;;20.00;60.30;;;;;;5059091;28;20063;-78
2021/05/21 12:13:47;;;;;;;8.20;2.30;;;20.20;60.60;;;;;;5042396;28;20184;-79
2021/05/21 12:16:18;;;;;;;9.20;2.45;;;20.40;59.20;;;;;;5066346;28;20046;-73
2021/05/21 12:18:45;;;;;;;9.68;2.42;;;20.40;58.10;;;;;;5061803;28;20036;-74
2021/05/21 12:21:11;;;;;;;9.30;2.22;;;20.50;58.30;;;;;;5060574;28;20057;-74
2021/05/21 12:23:39;;;;;;;11.15;2.85;;;20.60;58.40;;;;;;5060262;28;20461;-75
2021/05/21 12:26:11;;;;;;;10.98;2.97;;;20.70;57.80;;;;;;5065111;28;20116;-78
2021/05/21 12:28:37;;;;;;;10.27;2.75;;;20.80;56.00;;;;;;5063285;28;20064;-75
2021/05/21 12:31:04;;;;;;;9.15;2.85;;;20.90;56.50;;;;;;5063850;28;20052;-74
2021/05/21 12:33:34;;;;;;;11.07;2.95;;;21.00;53.80;;;;;;5060275;28;20033;-74
2021/05/21 12:36:15;;;;;;;13.77;3.53;;;21.10;53.40;;;;;;5063486;28;20032;-73
2021/05/21 12:38:51;;;;;;;7.95;2.53;;;21.10;53.60;;;;;;5065349;28;20516;-74
2021/05/21 12:41:20;;;;;;;10.82;3.03;;;21.20;53.10;;;;;;5055715;28;20024;-73
2021/05/21 12:43:45;;;;;;;9.93;2.63;;;21.40;52.60;;;;;;5061946;28;20017;-74
2021/05/21 12:46:13;;;;;;;13.80;3.25;;;21.40;51.20;;;;;;5062304;28;20037;-73
2021/05/21 12:48:44;;;;;;;10.07;2.72;;;21.30;50.50;;;;;;5059108;28;20466;-73